Time;durP1;ratioP1;P1;durP2;ratioP2;P2;SDS_P1;SDS_P2;PMS_P1;PMS_P2;Temp;Humidity;BMP_temperature;BMP_pressure;BME280_temperature;BME280_humidity;BME280_pressure;Samples;Min_cycle;Max_cycle;Signal;HPM_P1;HPM_P2
2021/12/23 00:01:34;;;;;;;5.35;4.95;;;-2.90;97.60;;;;;;4957102;28;20459;-88
2021/12/23 00:04:00;;;;;;;2.00;1.88;;;-2.90;97.60;;;;;;4956621;28;20026;-88
2021/12/23 00:06:26;;;;;;;1.05;1.05;;;-2.90;98.30;;;;;;4956637;28;20054;-88
2021/12/23 00:08:51;;;;;;;2.47;2.30;;;-3.00;98.40;;;;;;4956402;28;20027;-89
2021/12/23 00:11:17;;;;;;;1.10;1.10;;;-3.10;97.70;;;;;;4958783;28;20077;-87
2021/12/23 00:13:59;;;;;;;3.72;2.30;;;-3.20;98.40;;;;;;4974200;28;20019;-87
2021/12/23 00:16:41;;;;;;;5.60;3.53;;;-3.40;97.60;;;;;;4976216;28;20038;-88
2021/12/23 00:19:20;;;;;;;2.25;2.15;;;-3.40;98.90;;;;;;4972785;28;20378;-87
2021/12/23 00:24:31;;;;;;;0.90;0.90;;;-3.60;98.90;;;;;;4972373;28;20027;-89
2021/12/23 00:26:57;;;;;;;0.95;0.95;;;-3.50;99.90;;;;;;4956600;28;20030;-86
2021/12/23 00:29:23;;;;;;;1.80;0.90;;;-3.40;99.60;;;;;;4956277;28;20035;-87
2021/12/23 00:31:48;;;;;;;1.10;1.02;;;-3.40;99.50;;;;;;4956608;28;20062;-88
2021/12/23 00:34:14;;;;;;;0.60;0.60;;;-3.40;99.90;;;;;;4956494;28;20030;-88
2021/12/23 00:36:43;;;;;;;0.70;0.70;;;-3.20;99.90;;;;;;4973382;28;20086;-89
2021/12/23 00:39:10;;;;;;;2.47;2.13;;;-3.20;99.20;;;;;;4956637;28;20057;-88
2021/12/23 00:41:36;;;;;;;2.13;2.00;;;-3.20;99.20;;;;;;4956649;28;20034;-88
2021/12/23 00:44:03;;;;;;;2.38;2.25;;;-3.30;99.30;;;;;;4957256;28;20042;-88
2021/12/23 00:46:29;;;;;;;27.95;7.45;;;-3.40;99.10;;;;;;4957353;28;20023;-88
2021/12/23 00:48:54;;;;;;;1.30;1.30;;;-3.20;99.90;;;;;;4957955;28;20045;-88
2021/12/23 00:51:20;;;;;;;0.68;0.68;;;-3.10;99.70;;;;;;4957466;28;20027;-87
2021/12/23 00:54:04;;;;;;;2.70;2.55;;;-3.00;99.10;;;;;;4972385;28;20027;-87
2021/12/23 00:56:32;;;;;;;0.88;0.88;;;-3.10;98.40;;;;;;4972152;28;20057;-88
2021/12/23 00:59:07;;;;;;;0.60;0.60;;;-3.30;98.20;;;;;;4971906;28;20074;-88
2021/12/23 01:01:34;;;;;;;0.80;0.80;;;-3.40;98.70;;;;;;4958604;28;20110;-88
2021/12/23 01:04:06;;;;;;;0.75;0.75;;;-3.50;98.90;;;;;;4960393;28;20049;-87
2021/12/23 01:06:34;;;;;;;2.22;1.08;;;-3.40;99.90;;;;;;4959279;28;20114;-87
2021/12/23 01:09:07;;;;;;;0.50;0.50;;;-3.40;99.00;;;;;;4959561;28;20031;-89
2021/12/23 01:11:41;;;;;;;0.90;0.90;;;-3.50;99.60;;;;;;4960136;28;20034;-89
2021/12/23 01:19:23;;;;;;;0.77;0.77;;;-3.40;99.70;;;;;;4975328;28;20031;-88
2021/12/23 01:21:48;;;;;;;2.88;1.75;;;-3.40;99.50;;;;;;4959475;28;20030;-87
2021/12/23 01:24:14;;;;;;;0.82;0.63;;;-3.30;99.90;;;;;;4959329;28;20484;-88
2021/12/23 01:26:41;;;;;;;0.50;0.50;;;-3.30;99.40;;;;;;4959101;28;20026;-89
2021/12/23 01:29:07;;;;;;;0.90;0.90;;;-3.30;99.80;;;;;;4959899;28;20089;-88
2021/12/23 01:31:34;;;;;;;3.22;2.20;;;-3.10;99.30;;;;;;4958404;28;20041;-89
2021/12/23 01:34:06;;;;;;;1.85;1.80;;;-3.20;99.60;;;;;;4958671;28;20027;-88
2021/12/23 01:36:45;;;;;;;1.90;1.58;;;-3.20;99.90;;;;;;4958778;28;20029;-89
2021/12/23 01:39:18;;;;;;;0.70;0.70;;;-3.20;99.60;;;;;;4975991;28;20050;-89
2021/12/23 01:41:47;;;;;;;16.67;3.30;;;-3.20;99.60;;;;;;4958989;28;20027;-88
2021/12/23 01:44:27;;;;;;;0.77;0.77;;;-3.10;99.70;;;;;;4960055;28;20023;-89
2021/12/23 01:46:58;;;;;;;0.55;0.55;;;-3.10;99.30;;;;;;4959610;28;20041;-89
2021/12/23 01:49:52;;;;;;;0.70;0.70;;;-3.00;99.70;;;;;;4958718;28;20031;-88
2021/12/23 01:52:31;;;;;;;1.17;1.17;;;-3.00;99.20;;;;;;4975036;28;20153;-89
2021/12/23 01:55:23;;;;;;;;;;;;;;;;;;;;;
2021/12/23 01:58:07;;;;;;;0.50;0.50;;;-3.00;99.60;;;;;;4974078;28;20114;-89
2021/12/23 02:00:56;;;;;;;1.60;1.50;;;-2.90;98.80;;;;;;4974866;28;20031;-88
2021/12/23 02:03:51;;;;;;;0.60;0.60;;;-2.90;99.00;;;;;;4974571;28;20084;-89
2021/12/23 02:06:17;;;;;;;1.35;1.15;;;-2.80;99.40;;;;;;4958248;28;20029;-89
2021/12/23 02:08:44;;;;;;;0.75;0.75;;;-2.90;99.00;;;;;;4967929;28;20039;-89
2021/12/23 02:11:11;;;;;;;0.95;0.95;;;-2.90;99.00;;;;;;4986295;28;20049;-88
2021/12/23 02:13:38;;;;;;;0.70;0.70;;;-2.80;99.60;;;;;;4962394;28;20034;-88
2021/12/23 02:16:05;;;;;;;0.82;0.82;;;-2.70;98.50;;;;;;4962590;28;20084;-89
2021/12/23 02:18:36;;;;;;;3.60;1.35;;;-2.80;97.90;;;;;;4958812;28;20050;-88
2021/12/23 02:21:08;;;;;;;0.60;0.60;;;-2.70;98.30;;;;;;4962033;28;20035;-88
2021/12/23 02:23:45;;;;;;;;;;;;;;;;;;;;;
2021/12/23 02:26:22;;;;;;;0.60;0.60;;;-2.60;98.00;;;;;;4974128;28;20110;-88
2021/12/23 02:28:58;;;;;;;0.52;0.52;;;-2.50;97.80;;;;;;4970940;28;20039;-89
2021/12/23 02:31:29;;;;;;;0.73;0.73;;;-2.50;97.20;;;;;;4958220;29;20113;-88
2021/12/23 02:33:59;;;;;;;0.60;0.60;;;-2.50;97.40;;;;;;4950173;29;20102;-88
2021/12/23 02:36:45;;;;;;;0.80;0.80;;;-2.60;96.90;;;;;;4954481;28;20024;-89
2021/12/23 02:39:58;;;;;;;0.60;0.60;;;-2.60;96.90;;;;;;4954419;28;20035;-88
2021/12/23 02:42:57;;;;;;;0.50;0.50;;;-2.40;96.90;;;;;;4954949;28;20176;-88
2021/12/23 02:45:25;;;;;;;0.50;0.50;;;-2.40;96.80;;;;;;4970633;28;20023;-89
2021/12/23 02:48:17;;;;;;;;;;;;;;;;;;;;;
2021/12/23 02:50:50;;;;;;;0.95;0.95;;;-2.60;96.60;;;;;;4972155;28;20035;-88
2021/12/23 02:53:29;;;;;;;1.38;1.15;;;-2.70;95.70;;;;;;4969801;28;20047;-88
2021/12/23 02:56:08;;;;;;;0.90;0.88;;;-2.80;95.70;;;;;;4939366;29;20416;-88
2021/12/23 02:58:45;;;;;;;2.78;1.42;;;-2.80;95.80;;;;;;4955428;28;20031;-89
2021/12/23 03:01:21;;;;;;;1.20;1.13;;;-2.80;95.90;;;;;;4970329;28;20035;-89
2021/12/23 03:03:47;;;;;;;0.52;0.52;;;-2.80;95.40;;;;;;4937906;29;20031;-89
2021/12/23 03:06:13;;;;;;;0.52;0.52;;;-2.60;95.30;;;;;;4954042;29;20400;-89
2021/12/23 03:08:45;;;;;;;0.60;0.60;;;-2.50;95.40;;;;;;4937843;29;20031;-89
2021/12/23 03:11:13;;;;;;;1.95;1.85;;;-2.30;95.40;;;;;;4938039;29;20027;-89
2021/12/23 03:13:39;;;;;;;2.55;1.55;;;-2.30;94.60;;;;;;4937800;29;20413;-89
2021/12/23 03:16:29;;;;;;;0.60;0.60;;;-2.30;94.10;;;;;;4937587;29;20110;-89
2021/12/23 03:18:58;;;;;;;0.50;0.50;;;-2.20;94.20;;;;;;4937777;29;20059;-89
2021/12/23 03:21:37;;;;;;;0.60;0.60;;;-2.10;93.50;;;;;;4952866;29;20035;-88
2021/12/23 03:24:06;;;;;;;;;;;-2.00;93.60;;;;;;4970017;28;20110;-89
2021/12/23 03:26:42;;;;;;;0.60;0.60;;;-1.70;93.40;;;;;;4954989;28;19907;-88
2021/12/23 03:29:11;;;;;;;0.50;0.50;;;-1.80;93.10;;;;;;4937893;29;20039;-89
2021/12/23 03:31:38;;;;;;;0.50;0.50;;;-1.80;93.10;;;;;;4969713;28;20027;-88
2021/12/23 03:34:04;;;;;;;0.50;0.50;;;-1.90;93.20;;;;;;4937320;29;20055;-89
2021/12/23 03:36:30;;;;;;;0.40;0.40;;;-2.00;93.20;;;;;;4953668;29;20024;-88
2021/12/23 03:38:56;;;;;;;0.40;0.40;;;-2.10;93.40;;;;;;4937092;29;20019;-87
2021/12/23 03:41:32;;;;;;;1.77;1.40;;;-2.00;93.90;;;;;;4953694;29;20019;-88
2021/12/23 03:44:02;;;;;;;0.50;0.50;;;-1.70;94.00;;;;;;4969626;28;20023;-89
2021/12/23 03:46:28;;;;;;;0.60;0.60;;;-1.80;92.90;;;;;;4937100;29;20027;-89
2021/12/23 03:48:54;;;;;;;0.57;0.57;;;-1.60;92.80;;;;;;4953165;29;20094;-88
2021/12/23 03:51:19;;;;;;;0.50;0.50;;;-1.50;92.40;;;;;;4953319;29;20033;-88
2021/12/23 03:53:45;;;;;;;0.55;0.55;;;-1.50;92.20;;;;;;4953722;29;20020;-89
2021/12/23 03:56:11;;;;;;;0.52;0.52;;;-1.40;92.60;;;;;;4937981;29;20031;-89
2021/12/23 03:58:43;;;;;;;0.52;0.52;;;-1.30;92.40;;;;;;4953533;29;20047;-89
2021/12/23 04:01:12;;;;;;;;;;;-1.20;91.90;;;;;;4968736;28;20100;-89
2021/12/23 04:03:57;;;;;;;0.52;0.52;;;-1.40;91.40;;;;;;4952766;29;19906;-89
2021/12/23 04:06:30;;;;;;;0.95;0.95;;;-1.30;92.00;;;;;;4954122;29;20066;-88
2021/12/23 04:08:56;;;;;;;0.50;0.50;;;-1.30;92.00;;;;;;4944640;29;20497;-88
2021/12/23 04:11:32;;;;;;;0.60;0.60;;;-1.50;91.60;;;;;;4959030;29;20039;-89
2021/12/23 04:14:00;;;;;;;0.40;0.40;;;-1.50;91.40;;;;;;4953247;29;20023;-89
2021/12/23 04:16:26;;;;;;;0.52;0.52;;;-1.70;91.80;;;;;;4952994;29;20030;-89
2021/12/23 04:18:52;;;;;;;0.70;0.70;;;-1.70;92.20;;;;;;4966489;28;20019;-88
2021/12/23 04:21:18;;;;;;;0.60;0.60;;;-1.80;92.20;;;;;;4976249;28;20063;-89
2021/12/23 04:23:44;;;;;;;0.50;0.50;;;-1.60;92.40;;;;;;4937262;29;20083;-87
2021/12/23 04:26:10;;;;;;;0.50;0.50;;;-1.60;92.70;;;;;;4968932;28;20433;-89
2021/12/23 04:28:46;;;;;;;0.60;0.60;;;-1.50;92.40;;;;;;4953208;29;20031;-89
2021/12/23 04:31:14;;;;;;;0.40;0.40;;;-1.60;92.30;;;;;;4937309;29;20035;-89
2021/12/23 04:33:40;;;;;;;0.60;0.60;;;-1.70;92.50;;;;;;4937011;29;20027;-89
2021/12/23 04:36:07;;;;;;;0.40;0.40;;;-1.70;92.30;;;;;;4955154;28;20046;-89
2021/12/23 04:38:38;;;;;;;0.60;0.60;;;-1.70;93.40;;;;;;4940390;29;20034;-88
2021/12/23 04:41:08;;;;;;;0.43;0.43;;;-1.60;93.40;;;;;;4956812;28;20051;-88
2021/12/23 04:43:41;;;;;;;0.50;0.50;;;-1.70;93.10;;;;;;4972438;28;20515;-88
2021/12/23 04:46:28;;;;;;;0.55;0.55;;;-1.80;92.90;;;;;;4941255;29;20074;-89
2021/12/23 04:49:11;;;;;;;0.40;0.40;;;-1.70;93.10;;;;;;4955988;28;20039;-88
2021/12/23 04:51:50;;;;;;;0.50;0.50;;;-1.80;93.50;;;;;;4940336;29;20524;-89
2021/12/23 04:54:16;;;;;;;0.52;0.52;;;-1.70;93.40;;;;;;4955790;28;20031;-89
2021/12/23 04:56:42;;;;;;;0.30;0.30;;;-1.60;93.30;;;;;;4972250;28;20038;-89
2021/12/23 04:59:23;;;;;;;0.40;0.40;;;-1.80;92.80;;;;;;4956581;28;20456;-88
2021/12/23 05:01:52;;;;;;;0.73;0.70;;;-1.80;93.50;;;;;;4972296;28;20035;-88
2021/12/23 05:04:21;;;;;;;0.50;0.50;;;-1.80;93.20;;;;;;4956348;29;20027;-89
2021/12/23 05:06:59;;;;;;;0.90;0.82;;;-1.90;93.10;;;;;;4970467;28;20023;-88
2021/12/23 05:16:49;;;;;;;;;;;;;;;;;;;;;
2021/12/23 05:19:57;;;;;;;0.60;0.60;;;-2.10;93.60;;;;;;4957038;28;20058;-88
2021/12/23 05:22:47;;;;;;;0.55;0.55;;;-2.30;94.00;;;;;;4956173;29;20031;-88
2021/12/23 05:25:13;;;;;;;0.60;0.60;;;-2.50;94.40;;;;;;4950504;29;20020;-89
2021/12/23 05:27:39;;;;;;;0.40;0.40;;;-2.40;94.70;;;;;;4946296;29;20544;-89
2021/12/23 05:30:09;;;;;;;0.50;0.50;;;-2.50;94.30;;;;;;4972655;28;20034;-88
2021/12/23 05:32:35;;;;;;;0.60;0.60;;;-2.60;94.30;;;;;;4940279;29;20027;-89
2021/12/23 05:35:01;;;;;;;0.50;0.50;;;-2.60;94.60;;;;;;4955816;28;20027;-88
2021/12/23 05:37:27;;;;;;;0.50;0.50;;;-2.40;94.90;;;;;;4971544;28;20028;-88
2021/12/23 05:39:52;;;;;;;0.60;0.60;;;-2.40;94.30;;;;;;4955666;29;20027;-88
2021/12/23 05:42:18;;;;;;;0.60;0.60;;;-2.40;94.40;;;;;;4955541;28;20110;-88
2021/12/23 05:44:43;;;;;;;0.50;0.50;;;-2.30;94.00;;;;;;4955578;29;20035;-89
2021/12/23 05:47:09;;;;;;;0.60;0.60;;;-2.30;93.90;;;;;;4954582;28;20031;-88
2021/12/23 05:49:35;;;;;;;0.50;0.50;;;-2.40;94.60;;;;;;4955597;29;20023;-88
2021/12/23 05:52:01;;;;;;;0.50;0.50;;;-2.40;94.30;;;;;;4955652;29;20031;-89
2021/12/23 05:54:26;;;;;;;0.60;0.60;;;-2.30;94.50;;;;;;4971334;28;20027;-88
2021/12/23 05:56:52;;;;;;;0.60;0.60;;;-2.20;94.10;;;;;;4971364;28;20039;-89
2021/12/23 05:59:18;;;;;;;0.50;0.50;;;-2.10;94.00;;;;;;4955153;28;20031;-88
2021/12/23 06:01:43;;;;;;;0.60;0.60;;;-2.10;93.80;;;;;;4955230;29;20024;-89
2021/12/23 06:04:09;;;;;;;0.50;0.50;;;-2.00;93.80;;;;;;4955009;28;20023;-89
2021/12/23 06:06:34;;;;;;;0.47;0.47;;;-2.00;93.30;;;;;;4954789;28;20049;-89
2021/12/23 06:09:00;;;;;;;0.60;0.60;;;-2.00;93.10;;;;;;4955118;29;20054;-88
2021/12/23 06:11:26;;;;;;;0.55;0.55;;;-2.20;93.40;;;;;;4955165;29;20032;-88
2021/12/23 06:13:51;;;;;;;0.50;0.50;;;-2.10;93.70;;;;;;4956056;28;20033;-88
2021/12/23 06:16:17;;;;;;;1.02;1.02;;;-2.00;93.50;;;;;;4954823;28;20074;-89
2021/12/23 06:18:43;;;;;;;0.60;0.60;;;-2.10;93.20;;;;;;4955149;29;20126;-89
2021/12/23 06:21:09;;;;;;;0.50;0.50;;;-2.20;93.40;;;;;;4954942;28;20493;-89
2021/12/23 06:23:34;;;;;;;0.45;0.45;;;-2.30;93.50;;;;;;4972016;28;20030;-89
2021/12/23 06:26:00;;;;;;;2.00;1.08;;;-2.40;93.80;;;;;;4955052;29;20023;-89
2021/12/23 06:28:26;;;;;;;0.60;0.60;;;-2.40;93.80;;;;;;4954574;28;20035;-88
2021/12/23 06:30:52;;;;;;;0.60;0.60;;;-2.30;93.70;;;;;;4956151;29;20439;-89
2021/12/23 06:33:17;;;;;;;8.35;2.92;;;-2.40;94.30;;;;;;4970982;28;20027;-89
2021/12/23 06:35:43;;;;;;;0.52;0.52;;;-2.30;94.70;;;;;;4954189;28;20037;-89
2021/12/23 06:38:11;;;;;;;4.85;2.05;;;-2.20;94.50;;;;;;4955025;28;20023;-89
2021/12/23 06:40:38;;;;;;;0.60;0.60;;;-2.30;94.50;;;;;;4970687;28;20073;-90
2021/12/23 06:43:04;;;;;;;0.60;0.60;;;-2.30;94.60;;;;;;4938907;29;20035;-89
2021/12/23 06:45:30;;;;;;;0.60;0.60;;;-2.50;94.20;;;;;;4939885;29;20135;-89
2021/12/23 06:47:56;;;;;;;0.60;0.60;;;-2.70;94.40;;;;;;4965980;28;20118;-88
2021/12/23 06:50:36;;;;;;;0.70;0.70;;;-2.90;94.40;;;;;;4976507;28;20023;-89
2021/12/23 06:53:17;;;;;;;0.50;0.50;;;-2.80;95.40;;;;;;4976457;28;20038;-89
2021/12/23 06:55:52;;;;;;;0.60;0.60;;;-2.90;95.10;;;;;;4973015;28;20451;-89
2021/12/23 06:58:22;;;;;;;0.60;0.60;;;-2.90;95.00;;;;;;4980740;28;20044;-89
2021/12/23 07:00:52;;;;;;;0.60;0.60;;;-2.80;94.80;;;;;;4978575;28;20058;-91
2021/12/23 07:03:18;;;;;;;0.50;0.50;;;-2.70;94.90;;;;;;4971772;28;20085;-91
2021/12/23 07:05:44;;;;;;;0.60;0.60;;;-2.50;95.00;;;;;;4974014;28;20031;-91
2021/12/23 07:08:26;;;;;;;1.30;1.13;;;-2.50;94.30;;;;;;4973869;28;20037;-90
2021/12/23 07:10:52;;;;;;;0.60;0.60;;;-2.50;93.90;;;;;;4973741;28;20038;-90
2021/12/23 07:13:29;;;;;;;0.60;0.60;;;-2.60;94.60;;;;;;4973937;28;20042;-90
2021/12/23 07:16:07;;;;;;;0.60;0.60;;;-2.70;94.20;;;;;;4982365;28;20483;-91
2021/12/23 07:19:01;;;;;;;2.28;2.08;;;-2.60;94.50;;;;;;4978807;28;20041;-90
2021/12/23 07:21:38;;;;;;;0.63;0.63;;;-2.60;94.00;;;;;;4961178;28;20038;-90
2021/12/23 07:24:34;;;;;;;0.80;0.80;;;-2.50;94.00;;;;;;4957694;28;20213;-89
2021/12/23 07:27:23;;;;;;;0.80;0.80;;;-2.60;94.30;;;;;;4957318;28;20058;-90
2021/12/23 07:29:57;;;;;;;2.63;2.25;;;-2.60;94.50;;;;;;4954740;28;20113;-90
2021/12/23 07:32:22;;;;;;;0.70;0.70;;;-2.70;94.20;;;;;;4960298;28;20069;-90
2021/12/23 07:34:51;;;;;;;0.88;0.88;;;-2.80;94.80;;;;;;4959340;28;20123;-90
2021/12/23 07:37:20;;;;;;;1.88;1.77;;;-2.70;95.00;;;;;;4958969;28;20030;-90
2021/12/23 07:39:56;;;;;;;0.52;0.52;;;-2.60;94.40;;;;;;4968430;28;20063;-91
2021/12/23 07:42:24;;;;;;;1.67;1.58;;;-2.70;94.70;;;;;;4954118;28;20027;-90
2021/12/23 07:44:52;;;;;;;0.73;0.73;;;-2.80;94.70;;;;;;4954228;28;20404;-90
2021/12/23 07:47:18;;;;;;;0.80;0.80;;;-2.80;94.90;;;;;;4953753;28;20038;-91
2021/12/23 07:49:44;;;;;;;0.68;0.68;;;-2.70;94.80;;;;;;4953724;28;20027;-90
2021/12/23 07:52:22;;;;;;;0.70;0.70;;;-2.60;94.40;;;;;;4967087;28;20019;-90
2021/12/23 07:54:50;;;;;;;3.53;3.33;;;-2.70;94.50;;;;;;4974768;28;20019;-90
2021/12/23 07:57:19;;;;;;;0.95;0.90;;;-2.60;94.70;;;;;;4956836;28;20116;-89
2021/12/23 07:59:48;;;;;;;0.85;0.85;;;-2.50;94.80;;;;;;4957200;28;20022;-90
2021/12/23 08:02:14;;;;;;;0.60;0.60;;;-2.30;94.50;;;;;;4957286;28;20547;-90
2021/12/23 08:04:39;;;;;;;0.60;0.60;;;-2.30;94.90;;;;;;4956660;28;20023;-90
2021/12/23 08:07:05;;;;;;;2.08;1.88;;;-2.20;95.20;;;;;;4956729;28;20043;-90
2021/12/23 08:09:31;;;;;;;0.80;0.80;;;-2.20;95.20;;;;;;4973806;28;20033;-91
2021/12/23 08:11:59;;;;;;;0.65;0.65;;;-2.00;95.70;;;;;;4977015;28;20057;-90
2021/12/23 08:14:24;;;;;;;0.60;0.60;;;-1.80;95.10;;;;;;4977375;28;20107;-90
2021/12/23 08:16:50;;;;;;;1.52;1.45;;;-1.60;94.90;;;;;;4976628;28;20050;-91
2021/12/23 08:19:16;;;;;;;0.50;0.50;;;-1.40;94.60;;;;;;4977057;28;20023;-90
2021/12/23 08:21:42;;;;;;;0.60;0.60;;;-1.40;93.90;;;;;;4978247;28;20038;-89
2021/12/23 08:24:07;;;;;;;0.50;0.50;;;-1.40;93.80;;;;;;4978182;28;20050;-91
2021/12/23 08:26:40;;;;;;;0.50;0.50;;;-1.40;94.10;;;;;;4958424;28;20345;-91
2021/12/23 08:29:10;;;;;;;0.40;0.40;;;-1.30;94.80;;;;;;4976702;28;20049;-90
2021/12/23 08:31:36;;;;;;;1.95;1.85;;;-1.20;95.50;;;;;;4976190;28;20403;-91
2021/12/23 08:34:04;;;;;;;0.73;0.73;;;-1.00;95.60;;;;;;4960210;28;20038;-91
2021/12/23 08:36:39;;;;;;;1.35;1.17;;;-0.90;95.50;;;;;;4960701;28;20372;-90
2021/12/23 08:39:50;;;;;;;0.50;0.50;;;-0.60;95.90;;;;;;4960477;28;20029;-91
2021/12/23 08:42:27;;;;;;;0.55;0.55;;;-0.50;95.60;;;;;;4961583;28;20113;-91
2021/12/23 08:44:53;;;;;;;0.73;0.73;;;-0.40;95.70;;;;;;4959876;28;20081;-91
2021/12/23 08:47:19;;;;;;;0.43;0.43;;;-0.20;95.90;;;;;;4961153;28;20030;-91
2021/12/23 08:49:51;;;;;;;0.50;0.50;;;-0.20;95.90;;;;;;4961113;28;20039;-91
2021/12/23 08:52:20;;;;;;;0.63;0.63;;;-0.20;95.90;;;;;;4960609;28;20117;-91
2021/12/23 08:54:53;;;;;;;0.60;0.60;;;0.00;96.00;;;;;;4960587;28;20031;-91
2021/12/23 08:57:18;;;;;;;0.50;0.50;;;0.00;95.40;;;;;;4960398;28;20054;-91
2021/12/23 09:02:35;;;;;;;0.50;0.50;;;0.40;95.90;;;;;;5038164;28;20052;-93
2021/12/23 09:05:14;;;;;;;0.50;0.50;;;0.50;96.60;;;;;;5024320;28;20030;-93
2021/12/23 09:07:39;;;;;;;0.43;0.43;;;0.70;96.60;;;;;;5022106;28;20034;-93
2021/12/23 09:10:07;;;;;;;3.53;3.30;;;0.80;96.10;;;;;;5019929;28;20510;-93
2021/12/23 09:12:33;;;;;;;0.40;0.40;;;0.80;96.60;;;;;;5019735;28;20033;-93
2021/12/23 09:14:59;;;;;;;0.55;0.55;;;1.00;96.90;;;;;;5020692;28;20379;-93
2021/12/23 09:17:25;;;;;;;0.30;0.30;;;0.90;96.40;;;;;;5021133;28;20026;-93
2021/12/23 09:19:54;;;;;;;0.30;0.30;;;1.00;96.40;;;;;;5021651;28;20039;-93
2021/12/23 09:22:21;;;;;;;0.40;0.40;;;1.20;96.20;;;;;;5020155;28;20053;-93
2021/12/23 09:24:48;;;;;;;0.40;0.40;;;1.20;96.00;;;;;;5021017;28;20105;-93
2021/12/23 09:27:37;;;;;;;0.40;0.40;;;1.40;96.00;;;;;;5021218;28;20479;-93
2021/12/23 09:33:20;;;;;;;;;;;;;;;;;;;;;
2021/12/23 09:35:55;;;;;;;1.38;1.30;;;2.30;93.90;;;;;;5046574;28;20053;-92
2021/12/23 09:38:27;;;;;;;0.52;0.52;;;2.70;93.00;;;;;;5033888;28;20083;-92
2021/12/23 09:40:58;;;;;;;0.45;0.45;;;2.70;92.30;;;;;;5022479;28;20026;-92
2021/12/23 09:43:28;;;;;;;0.40;0.40;;;2.60;92.90;;;;;;5022206;28;20061;-92
2021/12/23 09:45:54;;;;;;;0.30;0.30;;;2.80;92.50;;;;;;5022105;28;20029;-93
2021/12/23 09:48:21;;;;;;;0.30;0.30;;;2.90;92.70;;;;;;5025597;28;20021;-92
2021/12/23 09:50:49;;;;;;;0.40;0.40;;;2.80;92.20;;;;;;5026020;28;20028;-92
2021/12/23 09:53:16;;;;;;;0.38;0.38;;;2.80;92.30;;;;;;5026432;28;20029;-93
2021/12/23 09:55:43;;;;;;;0.50;0.50;;;2.80;92.60;;;;;;5028064;28;20024;-93
2021/12/23 09:58:08;;;;;;;0.30;0.30;;;2.90;91.30;;;;;;5025400;28;20037;-93
2021/12/23 10:00:37;;;;;;;0.40;0.40;;;3.00;91.20;;;;;;5028148;28;20095;-93
2021/12/23 10:03:04;;;;;;;0.30;0.30;;;2.90;89.60;;;;;;5028178;28;20021;-92
2021/12/23 10:05:32;;;;;;;0.32;0.32;;;2.80;89.70;;;;;;5028511;28;20181;-92
2021/12/23 10:07:58;;;;;;;0.30;0.30;;;2.90;90.80;;;;;;5032859;28;20029;-91
2021/12/23 10:10:35;;;;;;;0.40;0.40;;;2.80;91.10;;;;;;5040503;28;20064;-92
2021/12/23 10:26:53;;;;;;;0.40;0.40;;;2.70;91.80;;;;;;5032128;28;20038;-92
2021/12/23 10:38:15;;;;;;;0.40;0.40;;;4.40;79.20;;;;;;5039347;28;20026;-92
2021/12/23 10:40:44;;;;;;;0.40;0.40;;;4.60;78.80;;;;;;5020285;28;20080;-92
2021/12/23 10:43:20;;;;;;;0.30;0.30;;;4.90;78.50;;;;;;5026147;28;20010;-93
2021/12/23 10:45:55;;;;;;;4.53;4.25;;;5.10;76.90;;;;;;5021095;28;20025;-90
2021/12/23 10:48:22;;;;;;;0.20;0.20;;;5.30;74.40;;;;;;5017348;28;20029;-90
2021/12/23 10:50:51;;;;;;;0.35;0.35;;;5.40;73.90;;;;;;5018576;28;20180;-94
2021/12/23 10:59:30;;;;;;;0.28;0.28;;;5.80;72.30;;;;;;5039120;28;20099;-93
2021/12/23 11:02:10;;;;;;;0.68;0.68;;;5.80;69.60;;;;;;5022778;28;20093;-94
2021/12/23 11:05:12;;;;;;;0.43;0.43;;;5.60;65.10;;;;;;5021228;28;20029;-93
2021/12/23 11:07:56;;;;;;;0.40;0.40;;;5.70;61.80;;;;;;5022994;28;20026;-94
2021/12/23 11:39:46;;;;;;;0.30;0.30;;;7.20;57.50;;;;;;5029433;28;20020;-93
2021/12/23 11:42:29;;;;;;;0.20;0.20;;;7.60;55.50;;;;;;5018408;28;20025;-92
2021/12/23 11:44:57;;;;;;;0.57;0.57;;;8.10;54.90;;;;;;5013113;28;20030;-93
2021/12/23 11:47:24;;;;;;;0.60;0.60;;;7.80;53.20;;;;;;5001783;28;20120;-92
2021/12/23 11:49:51;;;;;;;0.32;0.32;;;7.10;54.30;;;;;;5032249;28;20120;-93
2021/12/23 11:52:17;;;;;;;0.30;0.30;;;6.70;56.30;;;;;;5016234;28;20036;-93
2021/12/23 11:54:46;;;;;;;1.45;1.08;;;6.60;57.50;;;;;;5016028;28;20041;-92
2021/12/23 11:57:33;;;;;;;0.30;0.30;;;6.40;58.40;;;;;;5016088;28;20069;-93
2021/12/23 12:00:29;;;;;;;0.30;0.30;;;6.00;60.00;;;;;;5016337;28;20486;-92
2021/12/23 12:03:18;;;;;;;0.30;0.30;;;5.90;60.50;;;;;;5032177;28;20128;-92
2021/12/23 12:05:48;;;;;;;2.72;1.02;;;6.00;60.80;;;;;;5015727;28;20037;-92
2021/12/23 12:08:23;;;;;;;0.20;0.20;;;6.10;61.40;;;;;;5016568;28;20087;-92
2021/12/23 12:10:49;;;;;;;1.13;0.57;;;6.10;59.30;;;;;;5015798;28;20437;-92
2021/12/23 12:13:20;;;;;;;0.20;0.20;;;6.20;58.30;;;;;;5015346;28;20116;-91
2021/12/23 12:15:50;;;;;;;0.20;0.20;;;6.20;56.60;;;;;;5016800;28;20021;-92
2021/12/23 12:18:22;;;;;;;0.20;0.20;;;6.20;59.30;;;;;;5007395;28;20494;-92
2021/12/23 12:21:19;;;;;;;0.60;0.60;;;6.30;60.90;;;;;;5002689;28;20026;-92
2021/12/23 12:24:18;;;;;;;0.20;0.20;;;6.30;61.20;;;;;;5008100;28;20066;-92
2021/12/23 12:27:01;;;;;;;0.20;0.20;;;6.40;60.60;;;;;;5014266;28;20039;-92
2021/12/23 12:29:37;;;;;;;3.03;0.43;;;6.60;60.60;;;;;;5016563;28;20026;-92
2021/12/23 12:32:05;;;;;;;13.32;1.50;;;6.50;54.70;;;;;;5016622;28;20072;-92
2021/12/23 12:34:37;;;;;;;0.30;0.30;;;6.40;54.60;;;;;;5014616;28;20041;-92
2021/12/23 12:37:07;;;;;;;14.52;3.13;;;6.30;54.60;;;;;;5038606;28;20017;-93
2021/12/23 12:39:34;;;;;;;3.00;1.85;;;6.30;54.40;;;;;;5019727;28;20120;-95
2021/12/23 12:42:08;;;;;;;0.30;0.30;;;6.30;54.40;;;;;;5026422;28;20056;-93
2021/12/23 12:44:50;;;;;;;1.95;1.83;;;6.20;54.80;;;;;;5015857;28;20030;-92
2021/12/23 12:47:26;;;;;;;5.85;4.53;;;6.20;54.90;;;;;;5016167;28;20029;-92
2021/12/23 12:50:21;;;;;;;0.30;0.30;;;6.20;54.70;;;;;;5017251;28;20037;-93
2021/12/23 12:53:05;;;;;;;0.20;0.20;;;6.30;55.50;;;;;;5016748;28;20029;-93
2021/12/23 12:55:39;;;;;;;0.63;0.63;;;6.30;55.80;;;;;;5020000;28;20475;-92
2021/12/23 12:59:04;;;;;;;0.40;0.40;;;6.30;56.20;;;;;;5024599;28;20500;-93
2021/12/23 13:01:37;;;;;;;0.20;0.20;;;6.30;56.30;;;;;;5020713;28;20083;-93
2021/12/23 13:04:41;;;;;;;0.30;0.30;;;6.30;56.20;;;;;;5020824;28;20060;-93
2021/12/23 13:07:24;;;;;;;0.20;0.20;;;6.40;56.30;;;;;;5016833;28;20113;-92
2021/12/23 13:10:10;;;;;;;1.75;1.08;;;6.50;56.20;;;;;;5018755;28;20033;-93
2021/12/23 13:12:55;;;;;;;0.30;0.30;;;6.60;56.10;;;;;;5017582;28;20061;-92
2021/12/23 13:15:39;;;;;;;0.88;0.82;;;6.70;56.60;;;;;;5025601;28;20467;-93
2021/12/23 13:18:12;;;;;;;1.40;1.02;;;6.70;55.50;;;;;;5017520;28;20018;-92
2021/12/23 13:21:26;;;;;;;0.30;0.30;;;6.50;55.70;;;;;;5027171;28;20029;-92
2021/12/23 13:24:11;;;;;;;0.25;0.25;;;6.30;56.80;;;;;;4974733;28;20022;-92
2021/12/23 13:26:50;;;;;;;0.20;0.20;;;6.30;56.90;;;;;;4968526;28;20027;-93
2021/12/23 13:29:16;;;;;;;0.28;0.28;;;6.30;57.70;;;;;;4993095;28;20038;-92
2021/12/23 13:31:43;;;;;;;1.23;1.02;;;6.20;56.60;;;;;;5021789;28;20037;-93
2021/12/23 13:37:50;;;;;;;0.30;0.30;;;6.20;60.70;;;;;;5020902;28;20040;-94
2021/12/23 13:40:30;;;;;;;0.40;0.40;;;6.20;58.00;;;;;;5008256;28;20022;-92
2021/12/23 13:42:56;;;;;;;3.05;2.80;;;6.30;57.80;;;;;;5014191;28;20486;-92
2021/12/23 13:48:29;;;;;;;0.20;0.20;;;6.20;57.90;;;;;;5047750;28;20629;-92
2021/12/23 13:51:13;;;;;;;0.25;0.25;;;6.20;59.30;;;;;;5027981;28;20041;-94
2021/12/23 13:53:39;;;;;;;0.50;0.50;;;6.20;58.10;;;;;;5021194;28;20025;-93
2021/12/23 13:56:22;;;;;;;0.30;0.30;;;6.20;58.50;;;;;;5030356;28;20566;-93
2021/12/23 13:59:25;;;;;;;0.63;0.63;;;6.20;58.70;;;;;;5048183;28;20040;-93
2021/12/23 14:08:49;;;;;;;0.50;0.50;;;6.20;58.10;;;;;;4981623;28;19917;-93
2021/12/23 14:11:41;;;;;;;0.30;0.30;;;6.20;58.50;;;;;;5019815;28;20029;-92
2021/12/23 14:14:18;;;;;;;0.20;0.20;;;6.10;59.20;;;;;;5017520;28;20048;-92
2021/12/23 14:16:43;;;;;;;0.30;0.30;;;6.20;59.40;;;;;;5017652;28;20135;-90
2021/12/23 14:19:48;;;;;;;0.93;0.93;;;6.20;59.60;;;;;;5036423;28;20029;-93
2021/12/23 14:25:53;;;;;;;0.30;0.30;;;6.10;58.70;;;;;;5055236;28;20022;-93
2021/12/23 14:28:42;;;;;;;0.30;0.30;;;6.10;59.00;;;;;;5025613;28;20025;-92
2021/12/23 14:34:48;;;;;;;1.58;1.40;;;6.10;58.20;;;;;;5049579;28;20033;-93
2021/12/23 14:40:23;;;;;;;3.67;1.77;;;6.00;57.90;;;;;;5036041;28;20029;-93
2021/12/23 14:47:07;;;;;;;0.30;0.30;;;6.00;57.80;;;;;;5034549;28;20104;-93
2021/12/23 14:50:00;;;;;;;0.43;0.43;;;6.00;58.00;;;;;;5004553;28;20033;-92
2021/12/23 14:52:44;;;;;;;17.92;1.40;;;6.10;58.40;;;;;;5002437;28;20022;-93
2021/12/23 14:55:13;;;;;;;;;;;6.10;58.10;;;;;;5002395;28;20029;-93
2021/12/23 14:57:57;;;;;;;7.97;2.00;;;6.10;58.10;;;;;;4998549;28;19952;-87
2021/12/23 15:03:07;;;;;;;0.68;0.68;;;6.10;57.50;;;;;;4962616;28;20318;-77
2021/12/23 15:05:36;;;;;;;0.20;0.20;;;6.10;57.40;;;;;;4954338;28;20020;-76
2021/12/23 15:08:03;;;;;;;0.30;0.30;;;6.10;57.30;;;;;;4954337;28;20043;-76
2021/12/23 15:10:42;;;;;;;0.75;0.47;;;6.20;57.00;;;;;;4953959;28;20023;-77
2021/12/23 15:13:19;;;;;;;0.30;0.30;;;6.20;57.20;;;;;;4953307;28;20043;-76
2021/12/23 15:15:47;;;;;;;0.25;0.25;;;6.10;57.50;;;;;;4952483;29;20031;-76
2021/12/23 15:18:35;;;;;;;0.20;0.20;;;6.20;57.70;;;;;;4952700;28;20038;-77